Time;durP1;ratioP1;P1;durP2;ratioP2;P2;SDS_P1;SDS_P2;PMS_P1;PMS_P2;Temp;Humidity;BMP_temperature;BMP_pressure;BME280_temperature;BME280_humidity;BME280_pressure;Samples;Min_cycle;Max_cycle;Signal;HPM_P1;HPM_P2
2023/10/18 00:02:51;;;;;;;0.90;0.90;;;;;;;11.11;100.00;97219.19;5044419;28;20055;-57
2023/10/18 00:05:20;;;;;;;0.90;0.90;;;;;;;11.03;100.00;97206.34;5043771;28;20106;-57
2023/10/18 00:07:49;;;;;;;0.80;0.80;;;;;;;10.80;100.00;97169.50;5043732;28;20061;-58
2023/10/18 00:10:17;;;;;;;0.90;0.90;;;;;;;11.14;100.00;97212.88;5042276;28;20061;-57
2023/10/18 00:12:45;;;;;;;0.80;0.80;;;;;;;11.16;100.00;97216.09;5043839;28;20056;-57
2023/10/18 00:15:12;;;;;;;0.80;0.80;;;;;;;11.09;100.00;97208.47;5043447;28;20412;-56
2023/10/18 00:17:39;;;;;;;0.80;0.80;;;;;;;11.07;100.00;97209.97;5043786;28;20128;-58
2023/10/18 00:20:16;;;;;;;0.90;0.90;;;;;;;11.10;100.00;97212.00;5043713;28;20432;-57
2023/10/18 00:22:44;;;;;;;0.93;0.93;;;;;;;11.06;100.00;97198.09;5043852;28;20049;-56
2023/10/18 00:25:11;;;;;;;0.88;0.88;;;;;;;11.12;100.00;97193.03;5029882;28;20129;-58
2023/10/18 00:27:39;;;;;;;0.85;0.85;;;;;;;11.09;100.00;97199.31;5035847;28;20133;-58
2023/10/18 00:30:12;;;;;;;0.80;0.80;;;;;;;11.11;100.00;97197.00;5023741;28;20076;-58
2023/10/18 00:32:41;;;;;;;0.90;0.90;;;;;;;11.07;100.00;97205.25;5023370;28;20142;-58
2023/10/18 00:35:23;;;;;;;0.82;0.82;;;;;;;11.00;100.00;97201.56;5038589;28;20132;-58
2023/10/18 00:37:57;;;;;;;0.80;0.80;;;;;;;10.87;100.00;97197.34;5023596;28;20236;-57
2023/10/18 00:43:14;;;;;;;0.90;0.90;;;;;;;10.81;100.00;97183.00;5023195;28;20057;-57
2023/10/18 00:45:47;;;;;;;0.80;0.80;;;;;;;10.77;100.00;97187.66;5038401;28;20065;-58
2023/10/18 00:48:16;;;;;;;0.90;0.90;;;;;;;10.85;100.00;97205.22;5023794;28;20045;-58
2023/10/18 00:50:43;;;;;;;0.90;0.90;;;;;;;10.96;100.00;97195.13;5023525;28;20237;-58
2023/10/18 00:53:19;;;;;;;0.80;0.80;;;;;;;10.98;100.00;97190.84;5038130;28;20138;-58
2023/10/18 00:55:51;;;;;;;0.80;0.80;;;;;;;10.90;100.00;97180.78;5021848;28;20053;-59
2023/10/18 00:58:20;;;;;;;0.90;0.90;;;;;;;11.03;100.00;97193.31;5023212;28;20504;-58
2023/10/18 01:00:48;;;;;;;0.88;0.88;;;;;;;11.06;100.00;97197.31;5023400;28;20052;-59
2023/10/18 01:03:38;;;;;;;0.90;0.90;;;;;;;10.86;100.00;97173.59;5023069;28;20050;-58
2023/10/18 01:06:04;;;;;;;0.90;0.90;;;;;;;10.86;100.00;97176.34;5023490;28;20467;-58
2023/10/18 01:08:41;;;;;;;0.90;0.90;;;;;;;10.78;100.00;97171.84;5023236;28;20577;-59
2023/10/18 01:11:10;;;;;;;0.90;0.90;;;;;;;10.97;100.00;97197.53;5023264;28;20053;-58
2023/10/18 01:13:40;;;;;;;0.80;0.80;;;;;;;10.99;100.00;97194.38;5038158;28;20057;-58
2023/10/18 01:16:54;;;;;;;0.88;0.88;;;;;;;11.09;100.00;97193.78;5034812;28;20060;-59
2023/10/18 01:18:55;;;;;;;0.90;0.90;;;;;;;11.13;100.00;97189.13;5037917;28;20073;-58
2023/10/18 01:21:23;;;;;;;0.90;0.90;;;;;;;11.07;100.00;97194.16;5046764;28;20084;-58
2023/10/18 01:23:53;;;;;;;0.90;0.90;;;;;;;11.15;100.00;97183.97;5046346;28;20044;-58
2023/10/18 01:26:24;;;;;;;0.90;0.90;;;;;;;10.85;100.00;97189.41;5046854;28;20049;-58
2023/10/18 01:28:53;;;;;;;0.90;0.90;;;;;;;10.98;100.00;97181.72;5046143;28;20053;-58
2023/10/18 01:31:24;;;;;;;0.90;0.90;;;;;;;10.97;100.00;97180.13;5045081;28;20080;-59
2023/10/18 01:33:51;;;;;;;0.90;0.90;;;;;;;11.10;100.00;97195.38;5044831;28;20056;-58
2023/10/18 01:36:20;;;;;;;0.90;0.90;;;;;;;11.07;100.00;97196.13;5045808;28;20056;-58
2023/10/18 01:38:52;;;;;;;0.90;0.90;;;;;;;11.04;100.00;97174.69;5046142;28;20044;-58
2023/10/18 01:41:26;;;;;;;0.90;0.90;;;;;;;11.10;100.00;97195.38;5046520;28;20059;-58
2023/10/18 01:44:05;;;;;;;1.00;1.00;;;;;;;11.19;100.00;97179.31;5046240;28;20044;-59
2023/10/18 01:46:48;;;;;;;0.88;0.88;;;;;;;11.14;100.00;97162.97;5044952;28;20057;-58
2023/10/18 01:49:21;;;;;;;0.88;0.88;;;;;;;11.33;100.00;97179.53;5044239;28;20570;-58
2023/10/18 01:51:52;;;;;;;0.90;0.90;;;;;;;11.30;100.00;97177.50;5044622;28;20052;-58
2023/10/18 01:54:24;;;;;;;0.90;0.90;;;;;;;11.08;100.00;97136.75;5045555;28;20057;-59
2023/10/18 01:56:53;;;;;;;0.95;0.95;;;;;;;11.40;100.00;97182.41;5045611;28;20056;-58
2023/10/18 01:59:24;;;;;;;0.90;0.90;;;;;;;11.44;100.00;97188.84;5044453;28;20045;-58
2023/10/18 02:01:53;;;;;;;0.90;0.90;;;;;;;11.51;100.00;97183.38;5046129;28;20048;-58
2023/10/18 02:04:26;;;;;;;1.00;1.00;;;;;;;11.61;100.00;97174.44;5045881;28;20055;-58
2023/10/18 02:07:17;;;;;;;0.80;0.80;;;;;;;11.54;99.12;97182.66;5045455;28;20442;-59
2023/10/18 02:09:48;;;;;;;0.85;0.85;;;;;;;11.53;99.05;97183.81;5045702;28;20052;-58
2023/10/18 02:12:19;;;;;;;0.98;0.98;;;;;;;11.48;98.45;97176.63;5045779;28;20049;-58
2023/10/18 02:14:47;;;;;;;0.90;0.90;;;;;;;11.59;96.89;97182.31;5043711;28;20053;-58
2023/10/18 02:17:14;;;;;;;0.90;0.90;;;;;;;11.57;96.00;97179.13;5045813;28;20435;-57
2023/10/18 02:19:43;;;;;;;0.95;0.95;;;;;;;11.58;96.77;97183.50;5045306;28;20534;-59
2023/10/18 02:22:10;;;;;;;0.90;0.90;;;;;;;11.19;97.90;97121.09;5045321;28;20049;-58
2023/10/18 02:24:38;;;;;;;0.90;0.90;;;;;;;11.43;98.36;97162.28;5045055;28;20057;-59
2023/10/18 02:27:09;;;;;;;0.93;0.93;;;;;;;11.58;98.30;97183.50;5045582;28;20075;-58
2023/10/18 02:29:39;;;;;;;0.90;0.90;;;;;;;11.60;97.28;97183.94;5045232;28;20045;-59
2023/10/18 02:32:21;;;;;;;0.90;0.90;;;;;;;11.55;97.39;97178.69;5045526;28;20146;-58
2023/10/18 02:34:50;;;;;;;0.90;0.90;;;;;;;11.06;97.56;97105.81;5045298;28;20495;-58
2023/10/18 02:37:19;;;;;;;0.95;0.95;;;;;;;11.50;97.83;97156.81;5045256;28;20451;-58
2023/10/18 02:39:46;;;;;;;0.90;0.90;;;;;;;11.66;95.50;97169.41;5045187;28;20092;-58
2023/10/18 02:42:28;;;;;;;0.90;0.90;;;;;;;11.67;94.33;97170.19;5045119;28;20092;-58
2023/10/18 02:44:56;;;;;;;0.93;0.93;;;;;;;11.70;94.53;97184.13;5045301;28;20072;-58
2023/10/18 02:47:23;;;;;;;0.88;0.88;;;;;;;11.79;94.75;97183.84;5044756;28;20056;-58
2023/10/18 02:49:51;;;;;;;0.90;0.90;;;;;;;11.77;94.88;97186.19;5044517;28;20586;-59
2023/10/18 02:52:19;;;;;;;1.10;1.10;;;;;;;11.73;93.87;97179.78;5044561;28;20435;-58
2023/10/18 02:54:48;;;;;;;0.90;0.90;;;;;;;11.75;93.77;97183.00;5044540;28;20064;-59
2023/10/18 02:57:15;;;;;;;0.90;0.90;;;;;;;11.70;94.25;97172.22;5042992;28;20628;-58
2023/10/18 02:59:43;;;;;;;0.90;0.90;;;;;;;11.60;94.37;97153.41;5044748;28;20049;-58
2023/10/18 03:02:17;;;;;;;0.90;0.90;;;;;;;11.76;94.08;97184.59;5044830;28;20103;-58
2023/10/18 03:04:43;;;;;;;0.90;0.90;;;;;;;11.71;94.41;97159.94;5044404;28;20605;-58
2023/10/18 03:07:13;;;;;;;0.98;0.98;;;;;;;11.83;94.92;97168.84;5044825;28;20136;-58
2023/10/18 03:09:40;;;;;;;1.00;1.00;;;;;;;11.91;94.77;97186.41;5042748;28;20135;-58
2023/10/18 03:12:13;;;;;;;1.00;1.00;;;;;;;11.91;94.09;97176.09;5044707;28;20127;-59
2023/10/18 03:14:48;;;;;;;0.90;0.90;;;;;;;11.84;94.05;97172.41;5044286;28;20487;-58
2023/10/18 03:17:18;;;;;;;1.00;1.00;;;;;;;11.81;93.70;97181.47;5043492;28;20076;-59
2023/10/18 03:19:49;;;;;;;1.00;1.00;;;;;;;11.78;93.85;97176.69;5042454;28;20114;-58
2023/10/18 03:22:21;;;;;;;1.00;1.00;;;;;;;11.71;94.59;97182.94;5042901;28;20199;-59
2023/10/18 03:24:55;;;;;;;1.00;1.00;;;;;;;11.73;95.04;97177.00;5044207;28;20044;-58
2023/10/18 03:27:34;;;;;;;0.85;0.85;;;;;;;11.71;95.50;97159.94;5044580;28;20049;-58
2023/10/18 03:30:23;;;;;;;0.90;0.90;;;;;;;11.72;95.74;97175.41;5043911;28;20135;-58
2023/10/18 03:32:54;;;;;;;0.90;0.90;;;;;;;11.74;95.89;97171.09;5016888;28;20057;-59
2023/10/18 03:35:21;;;;;;;0.90;0.90;;;;;;;11.70;96.61;97169.44;5004664;28;20060;-58
2023/10/18 03:37:48;;;;;;;0.95;0.95;;;;;;;11.67;96.51;97165.44;5004405;28;20131;-58
2023/10/18 03:40:25;;;;;;;0.90;0.90;;;;;;;11.75;95.34;97172.69;5002211;28;20061;-58
2023/10/18 03:42:53;;;;;;;1.00;1.00;;;;;;;11.75;94.84;97169.13;5004265;28;20042;-58
2023/10/18 03:45:33;;;;;;;1.00;1.00;;;;;;;11.40;95.46;97129.72;5004321;28;20081;-58
2023/10/18 03:48:12;;;;;;;1.00;1.00;;;;;;;11.73;96.10;97171.44;5003069;28;20056;-58
2023/10/18 03:50:47;;;;;;;1.00;1.00;;;;;;;11.73;96.00;97163.13;5004372;28;20057;-59
2023/10/18 03:53:18;;;;;;;0.90;0.90;;;;;;;11.10;96.04;97074.22;5003960;28;20046;-58
2023/10/18 03:55:45;;;;;;;1.00;1.00;;;;;;;11.63;96.60;97163.78;5004345;28;20057;-59
2023/10/18 03:58:22;;;;;;;1.00;1.00;;;;;;;11.57;96.86;97159.72;4994847;28;20051;-58
2023/10/18 04:00:54;;;;;;;0.90;0.90;;;;;;;11.17;97.03;97096.50;4985047;28;20052;-58
2023/10/18 04:03:21;;;;;;;0.90;0.90;;;;;;;11.21;97.07;97093.78;4984504;28;20057;-59
2023/10/18 04:05:53;;;;;;;0.90;0.90;;;;;;;11.48;97.99;97139.75;4999511;28;20054;-58
2023/10/18 04:08:20;;;;;;;1.00;1.00;;;;;;;11.37;97.74;97144.31;4984574;28;20050;-59
2023/10/18 04:11:01;;;;;;;0.80;0.80;;;;;;;11.43;97.60;97137.31;4984200;28;20073;-58
2023/10/18 04:13:31;;;;;;;0.85;0.85;;;;;;;11.01;96.44;97059.00;4984232;28;20046;-58
2023/10/18 04:16:17;;;;;;;0.90;0.90;;;;;;;10.99;96.47;97066.88;4984575;28;20105;-58
2023/10/18 04:18:44;;;;;;;0.90;0.90;;;;;;;10.99;96.45;97064.13;4984338;28;20062;-58
2023/10/18 04:21:25;;;;;;;0.90;0.90;;;;;;;11.43;96.63;97142.88;4984720;28;20157;-58
2023/10/18 04:23:56;;;;;;;0.90;0.90;;;;;;;11.41;96.58;97128.56;4986968;28;20138;-59
2023/10/18 04:26:25;;;;;;;0.90;0.90;;;;;;;11.27;97.26;97128.34;5004128;28;20124;-58
2023/10/18 04:29:01;;;;;;;0.90;0.90;;;;;;;11.32;97.09;97147.41;5003648;28;20049;-59
2023/10/18 04:31:29;;;;;;;0.90;0.90;;;;;;;11.33;96.60;97138.75;5003656;28;20050;-59
2023/10/18 04:33:57;;;;;;;0.80;0.80;;;;;;;11.37;96.07;97141.56;5003528;28;20064;-58
2023/10/18 04:36:25;;;;;;;0.82;0.82;;;;;;;11.39;96.15;97142.81;5003710;28;20050;-59
2023/10/18 04:38:51;;;;;;;0.90;0.90;;;;;;;11.15;96.18;97089.72;5003839;28;20057;-58
2023/10/18 04:43:51;;;;;;;0.80;0.80;;;;;;;11.41;97.16;97145.19;5003791;28;20050;-58
2023/10/18 04:46:26;;;;;;;0.90;0.90;;;;;;;11.12;97.04;97084.94;4998658;28;20052;-61
2023/10/18 04:51:43;;;;;;;0.90;0.90;;;;;;;11.51;96.63;97156.44;4984497;28;20137;-59
2023/10/18 04:54:15;;;;;;;0.90;0.90;;;;;;;11.49;96.16;97158.00;4986511;28;20351;-59
2023/10/18 04:56:44;;;;;;;0.90;0.90;;;;;;;11.54;96.16;97149.38;4986665;28;20149;-59
2023/10/18 05:04:30;;;;;;;1.00;1.00;;;;;;;11.43;95.25;97120.69;4987886;28;20054;-59
2023/10/18 05:07:00;;;;;;;0.90;0.90;;;;;;;11.70;95.63;97153.59;4986721;28;20054;-59
2023/10/18 05:09:30;;;;;;;0.90;0.90;;;;;;;11.72;95.53;97144.88;4987674;28;20050;-58
2023/10/18 05:11:59;;;;;;;1.00;1.00;;;;;;;11.25;95.64;97089.09;4987655;28;20086;-59
2023/10/18 05:14:43;;;;;;;0.90;0.90;;;;;;;11.86;95.12;97179.19;4987029;28;20544;-59
2023/10/18 05:17:22;;;;;;;0.90;0.90;;;;;;;11.73;94.87;97155.63;4987421;28;20062;-58
2023/10/18 05:19:50;;;;;;;0.90;0.90;;;;;;;11.87;95.21;97174.47;4987336;28;20044;-58
2023/10/18 05:22:20;;;;;;;0.90;0.90;;;;;;;11.74;93.55;97161.97;5001835;28;20588;-58
2023/10/18 05:24:54;;;;;;;0.98;0.98;;;;;;;11.96;92.91;97194.41;4994722;28;20609;-59
2023/10/18 05:27:26;;;;;;;0.90;0.90;;;;;;;11.99;93.24;97190.88;5005527;28;20080;-58
2023/10/18 05:29:59;;;;;;;1.00;1.00;;;;;;;11.96;92.12;97197.19;5004127;28;20045;-59
2023/10/18 05:35:55;;;;;;;1.00;1.00;;;;;;;12.19;91.81;97197.88;5005564;28;20144;-58
2023/10/18 05:46:00;;;;;;;1.00;1.00;;;;;;;12.35;91.02;97198.50;4999695;28;20046;-59
2023/10/18 05:48:31;;;;;;;0.90;0.90;;;;;;;12.38;89.97;97200.50;5006862;28;20054;-59
2023/10/18 05:51:21;;;;;;;1.00;1.00;;;;;;;12.38;90.01;97191.41;5005343;28;20159;-60
2023/10/18 05:54:04;;;;;;;1.00;1.00;;;;;;;12.46;89.49;97221.66;5006613;28;20060;-60
2023/10/18 05:56:32;;;;;;;1.00;1.00;;;;;;;12.47;89.07;97186.34;4997816;28;20690;-64
2023/10/18 06:01:48;;;;;;;1.00;1.00;;;;;;;12.78;90.11;97230.38;5005816;28;20053;-61
2023/10/18 06:04:23;;;;;;;1.00;1.00;;;;;;;12.83;88.38;97239.19;5002410;28;20061;-62
2023/10/18 06:06:58;;;;;;;1.00;1.00;;;;;;;12.85;88.48;97236.78;5005532;28;20097;-59
2023/10/18 06:09:32;;;;;;;1.00;1.00;;;;;;;12.78;87.41;97247.84;5005738;28;20065;-60
2023/10/18 06:12:05;;;;;;;1.00;1.00;;;;;;;12.58;87.34;97213.06;5005574;28;20050;-60
2023/10/18 06:14:41;;;;;;;1.10;1.10;;;;;;;12.68;86.35;97226.28;5001889;28;20056;-64
2023/10/18 06:17:19;;;;;;;1.10;1.10;;;;;;;12.93;86.89;97246.81;4999645;28;20413;-53
2023/10/18 06:19:47;;;;;;;1.10;1.10;;;;;;;12.93;86.88;97235.69;4998351;28;20046;-55
2023/10/18 06:22:29;;;;;;;1.10;1.10;;;;;;;13.08;85.95;97245.03;4994261;28;20500;-56
2023/10/18 06:25:00;;;;;;;1.20;1.20;;;;;;;12.79;85.83;97209.72;5005304;28;20171;-59
2023/10/18 06:27:28;;;;;;;1.05;1.05;;;;;;;13.07;85.29;97252.56;5004869;28;20123;-61
2023/10/18 06:29:55;;;;;;;1.10;1.10;;;;;;;12.96;86.72;97215.47;4999555;28;20054;-66
2023/10/18 06:32:22;;;;;;;1.00;1.00;;;;;;;13.14;86.19;97227.63;4996654;28;20537;-62
2023/10/18 06:34:58;;;;;;;1.10;1.10;;;;;;;13.35;86.47;97238.94;4992160;28;20121;-56
2023/10/18 06:37:43;;;;;;;1.20;1.20;;;;;;;13.16;85.92;97199.41;5001910;28;20161;-60
2023/10/18 06:40:32;;;;;;;1.20;1.20;;;;;;;13.63;84.58;97244.75;5005180;28;20050;-55
2023/10/18 06:43:00;;;;;;;1.30;1.30;;;;;;;13.84;83.17;97246.09;5004517;28;20050;-58
2023/10/18 06:45:30;;;;;;;1.20;1.20;;;;;;;13.87;81.46;97225.84;5000158;28;20108;-57
2023/10/18 06:48:03;;;;;;;1.30;1.30;;;;;;;14.05;79.98;97241.50;5001956;28;20053;-58
2023/10/18 06:50:32;;;;;;;1.20;1.20;;;;;;;14.24;79.10;97262.72;4990900;28;20053;-57
2023/10/18 06:52:59;;;;;;;1.10;1.10;;;;;;;14.36;78.65;97249.28;5000591;28;20151;-55
2023/10/18 06:55:44;;;;;;;1.27;1.27;;;;;;;13.65;78.71;97136.63;5005234;28;20163;-59
2023/10/18 07:00:47;;;;;;;1.25;1.25;;;;;;;15.05;75.78;97270.28;4987520;28;20065;-55
2023/10/18 07:03:16;;;;;;;1.20;1.20;;;;;;;14.80;76.27;97258.25;4992859;28;20477;-60
2023/10/18 07:05:49;;;;;;;1.30;1.30;;;;;;;14.99;77.03;97259.91;4989681;28;20207;-59
2023/10/18 07:08:19;;;;;;;1.50;1.50;;;;;;;15.22;76.78;97285.50;4996027;28;20056;-59
2023/10/18 07:10:53;;;;;;;1.55;1.55;;;;;;;15.23;72.25;97284.28;4984452;28;20058;-53
2023/10/18 07:13:42;;;;;;;1.40;1.40;;;;;;;14.18;69.66;97175.13;4984833;28;20050;-53
2023/10/18 07:16:12;;;;;;;1.38;1.38;;;;;;;14.72;71.12;97275.31;4991106;28;20316;-53
2023/10/18 07:18:45;;;;;;;1.17;1.17;;;;;;;14.53;71.08;97270.06;5003456;28;20057;-56
2023/10/18 07:21:18;;;;;;;1.30;1.30;;;;;;;14.75;71.19;97221.56;5004225;28;20413;-62
2023/10/18 07:23:54;;;;;;;1.27;1.27;;;;;;;15.12;71.52;97258.34;5001488;28;20050;-62
2023/10/18 07:26:24;;;;;;;1.35;1.35;;;;;;;14.91;73.83;97219.22;4991076;28;20057;-61
2023/10/18 07:28:51;;;;;;;1.50;1.50;;;;;;;15.11;73.01;97256.75;5003672;28;20112;-54
2023/10/18 07:31:18;;;;;;;1.48;1.48;;;;;;;15.16;73.39;97242.41;5006710;28;20052;-62
2023/10/18 07:33:45;;;;;;;1.30;1.30;;;;;;;15.36;72.62;97235.28;4999102;28;20486;-60
2023/10/18 07:36:12;;;;;;;1.30;1.30;;;;;;;15.50;71.37;97207.41;4990301;28;20245;-65
2023/10/18 07:38:47;;;;;;;1.50;1.50;;;;;;;15.52;71.68;97216.19;4998069;28;20512;-61
2023/10/18 07:41:14;;;;;;;1.42;1.42;;;;;;;16.07;71.90;97242.50;5002503;28;20941;-60
2023/10/18 07:43:44;;;;;;;1.63;1.63;;;;;;;16.02;70.42;97200.97;4990757;28;20050;-60
2023/10/18 07:46:18;;;;;;;1.60;1.60;;;;;;;16.16;69.86;97244.88;5017654;28;20050;-56
2023/10/18 07:48:48;;;;;;;1.40;1.40;;;;;;;16.36;68.67;97216.06;5003578;28;20056;-54
2023/10/18 07:51:24;;;;;;;1.60;1.60;;;;;;;14.65;66.47;96954.69;5002748;28;20046;-63
2023/10/18 07:53:55;;;;;;;1.70;1.70;;;;;;;15.75;64.07;97090.09;4998477;28;20042;-55
2023/10/18 07:56:31;;;;;;;1.70;1.70;;;;;;;16.70;63.00;97223.97;4994980;28;20049;-56
2023/10/18 08:02:19;;;;;;;1.60;1.60;;;;;;;16.51;64.98;97239.22;4986829;28;20081;-63
2023/10/18 08:04:50;;;;;;;1.58;1.58;;;;;;;16.30;64.13;97216.88;5002313;28;20053;-61
2023/10/18 08:07:27;;;;;;;1.50;1.50;;;;;;;15.53;64.55;97205.78;5003234;28;20552;-53
2023/10/18 08:09:57;;;;;;;1.50;1.50;;;;;;;16.25;63.81;97228.47;5002994;28;20186;-61
2023/10/18 08:14:54;;;;;;;1.60;1.60;;;;;;;16.04;66.26;97254.47;5003239;28;20475;-54
2023/10/18 08:17:33;;;;;;;1.58;1.58;;;;;;;16.23;65.02;97234.47;5001727;28;20134;-54
2023/10/18 08:22:47;;;;;;;1.67;1.67;;;;;;;15.93;67.85;97248.06;5003319;28;20132;-53
2023/10/18 08:28:13;;;;;;;1.70;1.70;;;;;;;15.44;68.21;97191.44;5009185;28;20550;-54
2023/10/18 08:33:11;;;;;;;1.48;1.48;;;;;;;15.26;69.88;97219.31;5007535;28;20550;-55
2023/10/18 08:35:37;;;;;;;1.42;1.42;;;;;;;15.35;70.34;97256.00;5006822;28;20061;-55
2023/10/18 08:38:05;;;;;;;1.40;1.40;;;;;;;15.97;72.11;97248.09;5007210;28;20065;-60
2023/10/18 08:43:12;;;;;;;1.70;1.70;;;;;;;17.14;65.74;97252.16;5006896;28;20526;-61
2023/10/18 08:45:57;;;;;;;1.55;1.55;;;;;;;17.47;63.90;97254.38;5007055;28;20054;-54
2023/10/18 08:48:28;;;;;;;2.00;2.00;;;;;;;17.47;62.18;97257.19;5006805;28;20167;-54
2023/10/18 08:50:59;;;;;;;1.83;1.83;;;;;;;17.24;63.65;97243.72;5005140;28;20058;-56
2023/10/18 08:53:31;;;;;;;1.60;1.60;;;;;;;17.44;61.94;97257.97;5005586;28;20065;-57
2023/10/18 08:55:58;;;;;;;1.70;1.70;;;;;;;17.74;59.49;97258.19;5006178;28;20065;-54
2023/10/18 08:58:28;;;;;;;1.67;1.67;;;;;;;17.90;60.40;97261.28;5006601;28;20069;-60
2023/10/18 09:03:28;;;;;;;1.92;1.92;;;;;;;18.72;59.43;97265.69;5007245;28;20053;-54
2023/10/18 09:06:07;;;;;;;1.75;1.75;;;;;;;18.66;57.71;97273.00;5006387;28;20049;-60
2023/10/18 09:08:37;;;;;;;1.90;1.90;;;;;;;18.76;57.53;97255.22;5006844;28;20226;-61
2023/10/18 09:11:21;;;;;;;1.90;1.90;;;;;;;18.88;56.35;97267.91;5004687;28;20413;-61
2023/10/18 09:14:07;;;;;;;1.80;1.80;;;;;;;18.48;56.98;97275.19;5005993;28;20050;-60
2023/10/18 09:16:47;;;;;;;1.80;1.80;;;;;;;18.44;57.33;97249.19;5006038;28;20058;-60
2023/10/18 09:19:14;;;;;;;1.90;1.90;;;;;;;18.33;57.90;97228.84;5006014;28;20052;-60
2023/10/18 09:21:51;;;;;;;1.90;1.90;;;;;;;18.13;58.72;97217.41;5006329;28;20057;-60
2023/10/18 09:24:30;;;;;;;1.73;1.73;;;;;;;18.15;58.39;97259.03;5005933;28;20061;-54
2023/10/18 09:26:58;;;;;;;1.90;1.90;;;;;;;18.01;58.45;97254.38;4994834;28;20089;-60
2023/10/18 09:29:29;;;;;;;1.70;1.70;;;;;;;18.09;57.95;97255.09;5005954;28;20053;-57
2023/10/18 09:32:03;;;;;;;1.83;1.83;;;;;;;17.99;57.67;97258.78;5005640;28;20050;-53
2023/10/18 09:34:38;;;;;;;1.80;1.80;;;;;;;17.90;58.80;97250.06;5004165;28;20050;-55
2023/10/18 09:37:11;;;;;;;1.80;1.80;;;;;;;18.13;58.39;97255.84;4998351;28;20157;-57
2023/10/18 09:39:38;;;;;;;1.77;1.77;;;;;;;18.23;58.29;97254.97;5005339;28;20149;-55
2023/10/18 09:42:20;;;;;;;1.80;1.80;;;;;;;17.98;57.53;97232.78;5005136;28;20439;-55
2023/10/18 09:44:47;;;;;;;1.92;1.92;;;;;;;18.14;58.21;97251.84;4996096;28;20086;-62
2023/10/18 09:47:15;;;;;;;1.80;1.80;;;;;;;18.39;57.14;97240.41;5000751;28;20050;-64
2023/10/18 09:49:43;;;;;;;1.88;1.88;;;;;;;18.46;57.03;97251.56;5005718;28;20072;-65
2023/10/18 09:52:13;;;;;;;1.90;1.90;;;;;;;17.98;57.54;97175.91;5005118;28;20050;-60
2023/10/18 09:54:51;;;;;;;1.70;1.70;;;;;;;18.39;56.86;97255.25;5003879;28;20543;-61
2023/10/18 09:57:23;;;;;;;1.98;1.98;;;;;;;18.44;56.62;97249.19;5005249;28;20050;-63
2023/10/18 09:59:54;;;;;;;1.90;1.90;;;;;;;18.42;56.51;97248.78;5002941;28;20548;-60
2023/10/18 10:02:21;;;;;;;1.73;1.73;;;;;;;18.42;56.58;97240.38;5005077;28;20070;-60
2023/10/18 10:04:55;;;;;;;1.88;1.88;;;;;;;18.34;56.06;97215.59;5005466;28;20049;-57
2023/10/18 10:07:41;;;;;;;;;;;;;;;18.39;56.40;97235.59;4988880;28;20050;-57
2023/10/18 10:10:17;;;;;;;1.98;1.98;;;;;;;18.16;58.22;97232.63;4994703;28;19941;-58
2023/10/18 10:12:45;;;;;;;2.00;2.00;;;;;;;18.15;57.79;97225.41;4988139;28;20058;-56
2023/10/18 10:15:17;;;;;;;2.00;2.00;;;;;;;17.62;57.11;97056.97;5004736;28;20056;-54
2023/10/18 10:17:57;;;;;;;1.80;1.80;;;;;;;18.65;54.99;97159.13;5002998;28;20121;-60
2023/10/18 10:20:31;;;;;;;1.70;1.70;;;;;;;19.27;54.68;97217.66;5003374;28;20060;-56
2023/10/18 10:23:06;;;;;;;1.92;1.92;;;;;;;18.92;53.64;97106.63;5003510;28;20085;-60
2023/10/18 10:25:33;;;;;;;2.22;2.22;;;;;;;19.48;52.40;97145.13;4999781;28;20093;-60
2023/10/18 10:31:55;;;;;;;2.03;2.03;;;;;;;19.90;51.70;97204.66;4989938;28;20064;-60
2023/10/18 10:34:28;;;;;;;2.15;2.15;;;;;;;19.75;52.24;97203.31;5003518;28;20076;-60
2023/10/18 10:37:09;;;;;;;2.00;2.00;;;;;;;19.61;52.57;97200.72;5003622;28;20057;-55
2023/10/18 10:39:44;;;;;;;1.85;1.85;;;;;;;19.18;52.87;97204.16;5004657;28;20053;-60
2023/10/18 10:42:19;;;;;;;1.70;1.70;;;;;;;18.82;54.02;97180.59;4999731;28;20058;-54
2023/10/18 10:45:35;;;;;;;1.80;1.80;;;;;;;18.94;53.10;97205.28;4985209;28;20050;-60
2023/10/18 10:47:51;;;;;;;1.80;1.80;;;;;;;19.26;53.24;97208.44;5000436;28;20046;-60
2023/10/18 10:50:42;;;;;;;2.00;2.00;;;;;;;19.39;52.51;97206.66;5001577;28;20054;-60
2023/10/18 10:53:09;;;;;;;2.10;2.10;;;;;;;19.30;52.71;97200.78;5000595;28;20958;-53
2023/10/18 10:55:37;;;;;;;1.98;1.98;;;;;;;19.28;52.56;97197.59;4999273;28;20054;-60
2023/10/18 10:58:17;;;;;;;2.20;2.20;;;;;;;19.20;52.25;97184.88;4999756;28;20058;-61
2023/10/18 11:01:03;;;;;;;2.00;2.00;;;;;;;19.27;52.38;97192.38;4991800;28;20072;-57
2023/10/18 11:03:33;;;;;;;1.90;1.90;;;;;;;19.06;52.65;97168.19;4992401;28;20050;-55
2023/10/18 11:06:05;;;;;;;2.00;2.00;;;;;;;18.74;53.57;97156.63;4994554;28;20438;-58
2023/10/18 11:08:36;;;;;;;2.00;2.00;;;;;;;18.62;53.36;97148.75;5000925;28;20439;-60
2023/10/18 11:11:06;;;;;;;2.00;2.00;;;;;;;19.10;53.08;97180.19;4985285;28;20076;-59
2023/10/18 11:13:36;;;;;;;1.90;1.90;;;;;;;18.99;53.60;97187.97;4995255;28;20137;-55
2023/10/18 11:16:05;;;;;;;1.90;1.90;;;;;;;18.97;53.96;97181.16;4985045;28;20050;-61
2023/10/18 11:18:39;;;;;;;2.03;2.03;;;;;;;18.99;54.00;97162.69;4991196;28;20053;-55
2023/10/18 11:21:19;;;;;;;2.00;2.00;;;;;;;19.07;53.37;97163.38;4979797;28;20559;-58
2023/10/18 11:23:57;;;;;;;1.88;1.88;;;;;;;18.29;52.97;97084.25;4969664;28;20058;-55
2023/10/18 11:26:25;;;;;;;1.80;1.80;;;;;;;18.70;53.31;97171.94;4972177;28;20064;-55
2023/10/18 11:28:56;;;;;;;1.73;1.73;;;;;;;18.19;54.21;97133.63;4978626;28;20049;-61
2023/10/18 11:31:27;;;;;;;1.90;1.90;;;;;;;18.39;54.29;97167.47;4976059;28;20870;-55
2023/10/18 11:34:05;;;;;;;2.10;2.10;;;;;;;18.20;55.29;97166.06;4978951;28;20046;-60
2023/10/18 11:36:34;;;;;;;1.80;1.80;;;;;;;17.93;56.08;97156.72;4980528;28;20094;-60
2023/10/18 11:41:56;;;;;;;1.85;1.85;;;;;;;15.83;56.56;96835.47;4981288;28;20056;-53
2023/10/18 11:44:31;;;;;;;1.90;1.90;;;;;;;17.41;57.28;97099.97;4979235;28;20154;-56
2023/10/18 11:47:11;;;;;;;1.80;1.80;;;;;;;17.75;57.25;97145.69;4973042;28;20053;-60
2023/10/18 11:49:40;;;;;;;2.03;2.03;;;;;;;17.78;57.77;97155.28;4974846;28;20057;-59
2023/10/18 11:52:16;;;;;;;1.80;1.80;;;;;;;18.05;57.46;97153.44;4979285;28;20058;-59
2023/10/18 11:54:45;;;;;;;1.70;1.70;;;;;;;18.08;56.41;97152.59;4974883;28;20064;-53
2023/10/18 11:57:29;;;;;;;1.95;1.95;;;;;;;18.33;56.77;97147.50;4976071;28;20050;-59
2023/10/18 12:02:45;;;;;;;2.05;2.05;;;;;;;18.73;54.58;97160.63;4978907;28;20068;-65
2023/10/18 12:05:17;;;;;;;1.92;1.92;;;;;;;18.61;55.00;97133.13;4975943;28;20131;-57
2023/10/18 12:07:48;;;;;;;1.95;1.95;;;;;;;18.23;55.07;97131.56;4971203;28;20512;-55
2023/10/18 12:10:34;;;;;;;2.20;2.20;;;;;;;18.31;55.93;97144.31;4970097;28;20355;-61
2023/10/18 12:13:06;;;;;;;1.80;1.80;;;;;;;18.52;55.43;97155.31;4973685;28;20462;-57
2023/10/18 12:15:34;;;;;;;2.10;2.10;;;;;;;18.60;55.14;97161.63;4966673;28;20062;-61
2023/10/18 12:18:04;;;;;;;2.10;2.10;;;;;;;18.81;54.51;97173.34;4971898;28;20042;-60
2023/10/18 12:20:37;;;;;;;2.00;2.00;;;;;;;19.14;53.55;97168.91;4977094;28;20122;-60
2023/10/18 12:23:28;;;;;;;2.20;2.20;;;;;;;18.91;53.61;97109.88;4979884;28;20517;-60
2023/10/18 12:25:53;;;;;;;2.20;2.20;;;;;;;18.97;53.80;97128.63;4979920;28;20067;-59
2023/10/18 12:28:34;;;;;;;2.17;2.17;;;;;;;19.47;53.49;97153.97;4975270;28;20049;-58
2023/10/18 12:31:09;;;;;;;2.10;2.10;;;;;;;19.61;52.68;97156.56;4969406;28;21937;-59
2023/10/18 12:33:40;;;;;;;2.10;2.10;;;;;;;19.03;52.40;97145.81;4969930;28;20657;-63
2023/10/18 12:36:08;;;;;;;2.10;2.10;;;;;;;18.97;53.54;97137.03;4974876;28;20410;-64
2023/10/18 12:38:37;;;;;;;1.90;1.90;;;;;;;18.45;53.71;97076.84;4974244;28;20046;-57
2023/10/18 12:43:46;;;;;;;1.90;1.90;;;;;;;18.25;54.49;97162.81;4975964;28;20480;-61
2023/10/18 12:46:17;;;;;;;1.90;1.90;;;;;;;18.31;55.28;97161.13;4973862;28;20050;-56
2023/10/18 12:48:44;;;;;;;1.80;1.80;;;;;;;17.86;55.37;97095.16;4974502;28;20440;-60
2023/10/18 12:51:17;;;;;;;1.80;1.80;;;;;;;18.00;55.98;97167.88;4969888;28;20046;-58
2023/10/18 12:53:48;;;;;;;2.13;2.13;;;;;;;17.89;56.33;97167.19;4967946;28;20634;-59
2023/10/18 12:58:57;;;;;;;1.80;1.80;;;;;;;17.31;57.06;97114.06;4977561;28;20049;-62
2023/10/18 13:04:08;;;;;;;1.70;1.70;;;;;;;17.41;58.18;97158.78;4978860;28;20529;-62